sensor_id;sensor_type;location;lat;lon;timestamp;pressure;altitude;pressure_sealevel;temperature;humidity
78892;BME280;68368;51.728;5.248;2023-09-08T00:01:22;101652.06;;;20.52;65.64
78892;BME280;68368;51.728;5.248;2023-09-08T00:03:24;101647.99;;;20.49;65.71
78892;BME280;68368;51.728;5.248;2023-09-08T00:05:26;101646.30;;;20.47;65.75
78892;BME280;68368;51.728;5.248;2023-09-08T00:07:28;101648.44;;;20.48;65.76
78892;BME280;68368;51.728;5.248;2023-09-08T00:09:31;101647.54;;;20.47;65.79
78892;BME280;68368;51.728;5.248;2023-09-08T00:11:34;101653.89;;;20.46;65.77
78892;BME280;68368;51.728;5.248;2023-09-08T00:13:36;101651.41;;;20.45;65.70
78892;BME280;68368;51.728;5.248;2023-09-08T00:15:38;101652.94;;;20.43;65.66
78892;BME280;68368;51.728;5.248;2023-09-08T00:17:40;101653.52;;;20.43;65.64
78892;BME280;68368;51.728;5.248;2023-09-08T00:19:44;101662.71;;;20.42;65.68
78892;BME280;68368;51.728;5.248;2023-09-08T00:21:48;101660.29;;;20.40;65.79
78892;BME280;68368;51.728;5.248;2023-09-08T00:23:50;101660.38;;;20.37;65.90
78892;BME280;68368;51.728;5.248;2023-09-08T00:25:54;101658.11;;;20.35;65.90
78892;BME280;68368;51.728;5.248;2023-09-08T00:27:57;101657.41;;;20.34;66.00
78892;BME280;68368;51.728;5.248;2023-09-08T00:29:59;101660.16;;;20.33;66.04
78892;BME280;68368;51.728;5.248;2023-09-08T00:32:01;101660.07;;;20.31;66.11
78892;BME280;68368;51.728;5.248;2023-09-08T00:34:03;101660.70;;;20.28;66.01
78892;BME280;68368;51.728;5.248;2023-09-08T00:36:06;101659.36;;;20.26;66.07
78892;BME280;68368;51.728;5.248;2023-09-08T00:38:08;101658.91;;;20.23;66.17
78892;BME280;68368;51.728;5.248;2023-09-08T00:40:11;101658.25;;;20.22;66.24
78892;BME280;68368;51.728;5.248;2023-09-08T00:42:14;101656.70;;;20.20;66.31
78892;BME280;68368;51.728;5.248;2023-09-08T00:44:16;101660.58;;;20.17;66.37
78892;BME280;68368;51.728;5.248;2023-09-08T00:46:18;101656.85;;;20.16;66.28
78892;BME280;68368;51.728;5.248;2023-09-08T00:48:22;101659.91;;;20.16;66.34
78892;BME280;68368;51.728;5.248;2023-09-08T00:50:24;101661.04;;;20.15;66.38
78892;BME280;68368;51.728;5.248;2023-09-08T00:52:27;101659.83;;;20.13;66.56
78892;BME280;68368;51.728;5.248;2023-09-08T00:54:29;101657.92;;;20.10;66.55
78892;BME280;68368;51.728;5.248;2023-09-08T00:56:31;101658.03;;;20.08;66.57
78892;BME280;68368;51.728;5.248;2023-09-08T00:58:34;101658.29;;;20.06;66.64
78892;BME280;68368;51.728;5.248;2023-09-08T01:00:36;101658.03;;;20.03;66.53
78892;BME280;68368;51.728;5.248;2023-09-08T01:02:40;101658.64;;;20.02;66.58
78892;BME280;68368;51.728;5.248;2023-09-08T01:04:45;101660.35;;;19.99;66.66
78892;BME280;68368;51.728;5.248;2023-09-08T01:06:48;101661.66;;;19.97;66.73
78892;BME280;68368;51.728;5.248;2023-09-08T01:08:50;101658.50;;;19.95;66.60
78892;BME280;68368;51.728;5.248;2023-09-08T01:10:53;101657.72;;;19.92;66.82
78892;BME280;68368;51.728;5.248;2023-09-08T01:12:57;101659.77;;;19.90;66.94
78892;BME280;68368;51.728;5.248;2023-09-08T01:15:01;101658.44;;;19.87;67.11
78892;BME280;68368;51.728;5.248;2023-09-08T01:17:06;101658.73;;;19.84;67.17
78892;BME280;68368;51.728;5.248;2023-09-08T01:19:12;101657.88;;;19.82;67.33
78892;BME280;68368;51.728;5.248;2023-09-08T01:23:59;101656.94;;;19.74;67.34
78892;BME280;68368;51.728;5.248;2023-09-08T01:26:09;101657.07;;;19.70;67.38
78892;BME280;68368;51.728;5.248;2023-09-08T01:28:17;101655.20;;;19.66;67.38
78892;BME280;68368;51.728;5.248;2023-09-08T01:30:23;101657.98;;;19.63;67.56
78892;BME280;68368;51.728;5.248;2023-09-08T01:32:26;101654.95;;;19.62;67.68
78892;BME280;68368;51.728;5.248;2023-09-08T01:34:29;101655.90;;;19.60;67.67
78892;BME280;68368;51.728;5.248;2023-09-08T01:36:32;101652.52;;;19.59;67.83
78892;BME280;68368;51.728;5.248;2023-09-08T01:38:35;101655.15;;;19.56;68.02
78892;BME280;68368;51.728;5.248;2023-09-08T01:40:38;101655.74;;;19.55;68.18
78892;BME280;68368;51.728;5.248;2023-09-08T01:42:41;101653.99;;;19.53;68.21
78892;BME280;68368;51.728;5.248;2023-09-08T01:44:43;101652.79;;;19.52;68.34
78892;BME280;68368;51.728;5.248;2023-09-08T01:46:46;101649.98;;;19.50;68.41
78892;BME280;68368;51.728;5.248;2023-09-08T01:48:48;101653.83;;;19.48;68.42
78892;BME280;68368;51.728;5.248;2023-09-08T01:50:49;101654.78;;;19.46;68.60
78892;BME280;68368;51.728;5.248;2023-09-08T01:52:51;101653.59;;;19.44;68.63
78892;BME280;68368;51.728;5.248;2023-09-08T01:54:53;101649.64;;;19.44;68.76
78892;BME280;68368;51.728;5.248;2023-09-08T01:56:55;101649.50;;;19.42;68.80
78892;BME280;68368;51.728;5.248;2023-09-08T01:58:57;101648.12;;;19.41;68.95
78892;BME280;68368;51.728;5.248;2023-09-08T02:01:00;101652.22;;;19.42;68.91
78892;BME280;68368;51.728;5.248;2023-09-08T02:03:03;101649.60;;;19.40;68.85
78892;BME280;68368;51.728;5.248;2023-09-08T02:05:07;101646.27;;;19.37;68.93
78892;BME280;68368;51.728;5.248;2023-09-08T02:07:09;101646.36;;;19.34;69.08
78892;BME280;68368;51.728;5.248;2023-09-08T02:09:14;101649.14;;;19.32;69.04
78892;BME280;68368;51.728;5.248;2023-09-08T02:11:17;101650.86;;;19.29;69.18
78892;BME280;68368;51.728;5.248;2023-09-08T02:13:19;101648.95;;;19.27;69.22
78892;BME280;68368;51.728;5.248;2023-09-08T02:15:22;101649.19;;;19.25;69.47
78892;BME280;68368;51.728;5.248;2023-09-08T02:17:24;101645.16;;;19.21;69.61
78892;BME280;68368;51.728;5.248;2023-09-08T02:19:27;101647.77;;;19.19;69.61
78892;BME280;68368;51.728;5.248;2023-09-08T02:21:30;101650.55;;;19.17;69.72
78892;BME280;68368;51.728;5.248;2023-09-08T02:23:33;101647.77;;;19.13;69.83
78892;BME280;68368;51.728;5.248;2023-09-08T02:25:36;101650.57;;;19.10;70.18
78892;BME280;68368;51.728;5.248;2023-09-08T02:27:38;101644.41;;;19.07;70.20
78892;BME280;68368;51.728;5.248;2023-09-08T02:29:40;101642.71;;;19.03;70.34
78892;BME280;68368;51.728;5.248;2023-09-08T02:31:44;101642.45;;;19.00;70.54
78892;BME280;68368;51.728;5.248;2023-09-08T02:33:48;101642.52;;;18.97;70.61
78892;BME280;68368;51.728;5.248;2023-09-08T02:35:51;101639.73;;;18.95;70.64
78892;BME280;68368;51.728;5.248;2023-09-08T02:37:54;101638.54;;;18.93;70.90
78892;BME280;68368;51.728;5.248;2023-09-08T02:39:59;101640.80;;;18.90;71.04
78892;BME280;68368;51.728;5.248;2023-09-08T02:42:02;101637.81;;;18.87;71.24
78892;BME280;68368;51.728;5.248;2023-09-08T02:44:05;101640.21;;;18.86;71.36
78892;BME280;68368;51.728;5.248;2023-09-08T02:46:07;101640.85;;;18.83;71.39
78892;BME280;68368;51.728;5.248;2023-09-08T02:48:09;101642.96;;;18.79;71.52
78892;BME280;68368;51.728;5.248;2023-09-08T02:50:11;101642.51;;;18.75;71.67
78892;BME280;68368;51.728;5.248;2023-09-08T02:52:13;101645.65;;;18.72;71.79
78892;BME280;68368;51.728;5.248;2023-09-08T02:54:15;101644.13;;;18.68;71.89
78892;BME280;68368;51.728;5.248;2023-09-08T02:56:17;101647.48;;;18.66;72.01
78892;BME280;68368;51.728;5.248;2023-09-08T02:58:20;101651.85;;;18.63;72.11
78892;BME280;68368;51.728;5.248;2023-09-08T03:00:24;101652.11;;;18.61;72.46
78892;BME280;68368;51.728;5.248;2023-09-08T03:02:31;101652.17;;;18.59;72.70
78892;BME280;68368;51.728;5.248;2023-09-08T03:04:35;101651.55;;;18.55;72.76
78892;BME280;68368;51.728;5.248;2023-09-08T03:06:37;101652.75;;;18.51;72.78
78892;BME280;68368;51.728;5.248;2023-09-08T03:08:39;101651.73;;;18.49;72.81
78892;BME280;68368;51.728;5.248;2023-09-08T03:10:44;101648.80;;;18.45;73.22
78892;BME280;68368;51.728;5.248;2023-09-08T03:12:46;101647.32;;;18.41;74.06
78892;BME280;68368;51.728;5.248;2023-09-08T03:14:47;101646.18;;;18.37;74.19
78892;BME280;68368;51.728;5.248;2023-09-08T03:16:50;101648.66;;;18.32;74.39
78892;BME280;68368;51.728;5.248;2023-09-08T03:18:54;101645.38;;;18.27;74.28
78892;BME280;68368;51.728;5.248;2023-09-08T03:20:56;101647.08;;;18.24;74.63
78892;BME280;68368;51.728;5.248;2023-09-08T03:22:58;101647.36;;;18.21;74.70
78892;BME280;68368;51.728;5.248;2023-09-08T03:25:03;101650.31;;;18.18;74.79
78892;BME280;68368;51.728;5.248;2023-09-08T03:27:05;101646.25;;;18.16;75.05
78892;BME280;68368;51.728;5.248;2023-09-08T03:29:08;101642.72;;;18.14;75.23
78892;BME280;68368;51.728;5.248;2023-09-08T03:31:11;101641.70;;;18.11;75.27
78892;BME280;68368;51.728;5.248;2023-09-08T03:33:13;101639.80;;;18.09;75.31
78892;BME280;68368;51.728;5.248;2023-09-08T03:35:16;101635.59;;;18.05;75.39
78892;BME280;68368;51.728;5.248;2023-09-08T03:37:21;101637.81;;;18.03;75.59
78892;BME280;68368;51.728;5.248;2023-09-08T03:39:23;101635.91;;;18.00;75.76
78892;BME280;68368;51.728;5.248;2023-09-08T03:41:27;101633.83;;;17.98;75.75
78892;BME280;68368;51.728;5.248;2023-09-08T03:43:29;101636.95;;;17.96;75.82
78892;BME280;68368;51.728;5.248;2023-09-08T03:45:31;101635.22;;;17.93;76.19
78892;BME280;68368;51.728;5.248;2023-09-08T03:47:34;101630.61;;;17.91;76.35
78892;BME280;68368;51.728;5.248;2023-09-08T03:49:36;101630.86;;;17.88;76.50
78892;BME280;68368;51.728;5.248;2023-09-08T03:51:43;101626.84;;;17.84;76.41
78892;BME280;68368;51.728;5.248;2023-09-08T03:53:45;101628.20;;;17.80;76.60
78892;BME280;68368;51.728;5.248;2023-09-08T03:55:47;101622.17;;;17.76;76.92
78892;BME280;68368;51.728;5.248;2023-09-08T03:57:48;101623.13;;;17.73;76.95
78892;BME280;68368;51.728;5.248;2023-09-08T03:59:51;101627.89;;;17.70;77.34
78892;BME280;68368;51.728;5.248;2023-09-08T04:01:53;101624.91;;;17.68;77.35
78892;BME280;68368;51.728;5.248;2023-09-08T04:03:54;101626.95;;;17.66;77.51
78892;BME280;68368;51.728;5.248;2023-09-08T04:05:56;101623.77;;;17.64;77.68
78892;BME280;68368;51.728;5.248;2023-09-08T04:07:59;101625.59;;;17.63;77.78
78892;BME280;68368;51.728;5.248;2023-09-08T04:10:01;101623.48;;;17.61;77.98
78892;BME280;68368;51.728;5.248;2023-09-08T04:12:06;101624.38;;;17.61;78.04
78892;BME280;68368;51.728;5.248;2023-09-08T04:14:08;101622.10;;;17.59;77.89
78892;BME280;68368;51.728;5.248;2023-09-08T04:16:10;101621.45;;;17.56;77.99
78892;BME280;68368;51.728;5.248;2023-09-08T04:18:12;101620.66;;;17.52;78.16
78892;BME280;68368;51.728;5.248;2023-09-08T04:20:16;101623.73;;;17.52;78.29
78892;BME280;68368;51.728;5.248;2023-09-08T04:22:19;101620.17;;;17.50;78.46
78892;BME280;68368;51.728;5.248;2023-09-08T04:24:21;101622.19;;;17.49;78.58
78892;BME280;68368;51.728;5.248;2023-09-08T04:26:23;101618.66;;;17.47;78.49
78892;BME280;68368;51.728;5.248;2023-09-08T04:28:25;101617.09;;;17.45;78.77
78892;BME280;68368;51.728;5.248;2023-09-08T04:30:28;101619.84;;;17.43;78.93
78892;BME280;68368;51.728;5.248;2023-09-08T04:32:30;101615.75;;;17.41;79.09
78892;BME280;68368;51.728;5.248;2023-09-08T04:34:31;101616.54;;;17.38;79.04
78892;BME280;68368;51.728;5.248;2023-09-08T04:36:34;101622.49;;;17.37;79.11
78892;BME280;68368;51.728;5.248;2023-09-08T04:38:36;101621.27;;;17.36;79.38
78892;BME280;68368;51.728;5.248;2023-09-08T04:40:41;101621.45;;;17.35;79.23
78892;BME280;68368;51.728;5.248;2023-09-08T04:42:44;101619.31;;;17.35;79.30
78892;BME280;68368;51.728;5.248;2023-09-08T04:44:47;101623.09;;;17.35;79.34
78892;BME280;68368;51.728;5.248;2023-09-08T04:46:52;101622.58;;;17.34;79.28
78892;BME280;68368;51.728;5.248;2023-09-08T04:48:54;101628.17;;;17.33;79.34
78892;BME280;68368;51.728;5.248;2023-09-08T04:50:57;101621.93;;;17.31;79.48
78892;BME280;68368;51.728;5.248;2023-09-08T04:52:59;101624.45;;;17.30;79.55
78892;BME280;68368;51.728;5.248;2023-09-08T04:55:04;101621.63;;;17.29;79.64
78892;BME280;68368;51.728;5.248;2023-09-08T04:57:07;101624.89;;;17.28;79.82
78892;BME280;68368;51.728;5.248;2023-09-08T04:59:09;101625.77;;;17.28;79.93
78892;BME280;68368;51.728;5.248;2023-09-08T05:01:11;101624.34;;;17.28;79.95
78892;BME280;68368;51.728;5.248;2023-09-08T05:03:13;101627.20;;;17.28;80.01
78892;BME280;68368;51.728;5.248;2023-09-08T05:05:15;101626.33;;;17.28;80.01
78892;BME280;68368;51.728;5.248;2023-09-08T05:07:18;101627.40;;;17.27;80.04
78892;BME280;68368;51.728;5.248;2023-09-08T05:09:20;101625.05;;;17.28;80.00
78892;BME280;68368;51.728;5.248;2023-09-08T05:11:24;101623.94;;;17.29;79.96
78892;BME280;68368;51.728;5.248;2023-09-08T05:13:26;101624.46;;;17.30;79.89
78892;BME280;68368;51.728;5.248;2023-09-08T05:15:28;101629.09;;;17.32;79.87
78892;BME280;68368;51.728;5.248;2023-09-08T05:17:30;101626.36;;;17.34;80.04
78892;BME280;68368;51.728;5.248;2023-09-08T05:19:32;101631.85;;;17.37;79.89
78892;BME280;68368;51.728;5.248;2023-09-08T05:21:34;101630.49;;;17.40;79.83
78892;BME280;68368;51.728;5.248;2023-09-08T05:23:36;101633.27;;;17.44;79.71
78892;BME280;68368;51.728;5.248;2023-09-08T05:25:41;101634.77;;;17.49;79.61
78892;BME280;68368;51.728;5.248;2023-09-08T05:27:44;101633.22;;;17.53;79.47
78892;BME280;68368;51.728;5.248;2023-09-08T05:29:46;101632.38;;;17.57;79.58
78892;BME280;68368;51.728;5.248;2023-09-08T05:31:48;101639.40;;;17.63;79.60
78892;BME280;68368;51.728;5.248;2023-09-08T05:33:50;101637.28;;;17.68;79.39
78892;BME280;68368;51.728;5.248;2023-09-08T05:35:53;101638.23;;;17.73;79.29
78892;BME280;68368;51.728;5.248;2023-09-08T05:37:56;101640.23;;;17.80;79.09
78892;BME280;68368;51.728;5.248;2023-09-08T05:39:58;101640.88;;;18.02;78.62
78892;BME280;68368;51.728;5.248;2023-09-08T05:42:01;101637.48;;;18.75;77.61
78892;BME280;68368;51.728;5.248;2023-09-08T05:44:03;101638.06;;;19.66;75.68
78892;BME280;68368;51.728;5.248;2023-09-08T05:46:05;101636.96;;;20.55;73.80
78892;BME280;68368;51.728;5.248;2023-09-08T05:48:07;101637.84;;;21.41;71.01
78892;BME280;68368;51.728;5.248;2023-09-08T05:50:10;101634.05;;;22.19;68.42
78892;BME280;68368;51.728;5.248;2023-09-08T05:52:12;101635.15;;;22.95;66.61
78892;BME280;68368;51.728;5.248;2023-09-08T05:54:14;101634.55;;;23.69;64.77
78892;BME280;68368;51.728;5.248;2023-09-08T05:56:17;101638.82;;;24.38;62.20
78892;BME280;68368;51.728;5.248;2023-09-08T05:58:19;101636.33;;;24.99;60.27
78892;BME280;68368;51.728;5.248;2023-09-08T06:00:22;101640.74;;;25.60;58.45
78892;BME280;68368;51.728;5.248;2023-09-08T06:02:24;101638.67;;;26.18;56.31
78892;BME280;68368;51.728;5.248;2023-09-08T06:04:26;101643.13;;;26.68;54.40
78892;BME280;68368;51.728;5.248;2023-09-08T06:06:28;101636.70;;;27.13;53.24
78892;BME280;68368;51.728;5.248;2023-09-08T06:08:32;101642.46;;;27.57;52.02
78892;BME280;68368;51.728;5.248;2023-09-08T06:10:34;101646.27;;;28.05;50.78
78892;BME280;68368;51.728;5.248;2023-09-08T06:12:36;101647.41;;;28.50;49.24
78892;BME280;68368;51.728;5.248;2023-09-08T06:14:39;101644.45;;;28.95;48.04
78892;BME280;68368;51.728;5.248;2023-09-08T06:16:41;101646.20;;;29.40;47.10
78892;BME280;68368;51.728;5.248;2023-09-08T06:18:43;101645.88;;;29.82;45.76
78892;BME280;68368;51.728;5.248;2023-09-08T06:20:46;101652.54;;;30.19;43.80
78892;BME280;68368;51.728;5.248;2023-09-08T06:22:51;101650.30;;;30.49;43.11
78892;BME280;68368;51.728;5.248;2023-09-08T06:24:55;101652.27;;;30.81;42.45
78892;BME280;68368;51.728;5.248;2023-09-08T06:27:00;101653.86;;;31.15;42.20
78892;BME280;68368;51.728;5.248;2023-09-08T06:29:02;101652.20;;;31.52;41.21
78892;BME280;68368;51.728;5.248;2023-09-08T06:31:05;101652.86;;;31.80;40.00
78892;BME280;68368;51.728;5.248;2023-09-08T06:33:07;101653.40;;;32.04;39.19
78892;BME280;68368;51.728;5.248;2023-09-08T06:35:13;101649.50;;;32.21;38.68
78892;BME280;68368;51.728;5.248;2023-09-08T06:37:16;101650.77;;;32.46;38.22
78892;BME280;68368;51.728;5.248;2023-09-08T06:39:18;101655.88;;;32.73;37.97
78892;BME280;68368;51.728;5.248;2023-09-08T06:41:20;101655.59;;;32.96;37.58
78892;BME280;68368;51.728;5.248;2023-09-08T06:43:24;101655.48;;;33.19;37.21
78892;BME280;68368;51.728;5.248;2023-09-08T06:45:26;101657.09;;;33.45;36.72
78892;BME280;68368;51.728;5.248;2023-09-08T06:47:28;101651.17;;;33.71;36.31
78892;BME280;68368;51.728;5.248;2023-09-08T06:49:30;101654.95;;;33.99;35.67
78892;BME280;68368;51.728;5.248;2023-09-08T06:51:34;101656.98;;;34.25;35.39
78892;BME280;68368;51.728;5.248;2023-09-08T06:53:37;101658.90;;;34.51;34.98
78892;BME280;68368;51.728;5.248;2023-09-08T06:55:40;101661.92;;;34.76;34.42
78892;BME280;68368;51.728;5.248;2023-09-08T06:57:41;101661.80;;;34.98;34.25
78892;BME280;68368;51.728;5.248;2023-09-08T06:59:45;101661.38;;;35.19;33.59
78892;BME280;68368;51.728;5.248;2023-09-08T07:01:47;101658.98;;;35.38;33.20
78892;BME280;68368;51.728;5.248;2023-09-08T07:03:49;101663.93;;;35.57;32.87
78892;BME280;68368;51.728;5.248;2023-09-08T07:05:53;101660.80;;;35.67;32.44
78892;BME280;68368;51.728;5.248;2023-09-08T07:07:55;101658.11;;;35.74;31.53
78892;BME280;68368;51.728;5.248;2023-09-08T07:09:57;101657.90;;;35.76;31.78
78892;BME280;68368;51.728;5.248;2023-09-08T07:11:59;101659.02;;;35.77;31.65
78892;BME280;68368;51.728;5.248;2023-09-08T07:14:01;101659.05;;;35.80;31.58
78892;BME280;68368;51.728;5.248;2023-09-08T07:16:03;101662.23;;;35.78;30.53
78892;BME280;68368;51.728;5.248;2023-09-08T07:18:14;101663.20;;;35.68;30.81
78892;BME280;68368;51.728;5.248;2023-09-08T07:20:17;101668.46;;;35.56;31.11
78892;BME280;68368;51.728;5.248;2023-09-08T07:22:19;101668.05;;;35.49;31.03
78892;BME280;68368;51.728;5.248;2023-09-08T07:24:21;101667.80;;;35.41;30.91
78892;BME280;68368;51.728;5.248;2023-09-08T07:26:23;101668.76;;;35.35;31.21
78892;BME280;68368;51.728;5.248;2023-09-08T07:28:27;101670.67;;;35.34;31.12
78892;BME280;68368;51.728;5.248;2023-09-08T07:30:28;101668.80;;;35.34;31.47
78892;BME280;68368;51.728;5.248;2023-09-08T07:32:35;101668.89;;;35.32;31.06
78892;BME280;68368;51.728;5.248;2023-09-08T07:34:42;101667.38;;;35.23;31.36
78892;BME280;68368;51.728;5.248;2023-09-08T07:36:45;101668.70;;;35.19;31.48
78892;BME280;68368;51.728;5.248;2023-09-08T07:38:47;101668.21;;;35.13;31.59
78892;BME280;68368;51.728;5.248;2023-09-08T07:40:50;101670.55;;;35.12;31.99
78892;BME280;68368;51.728;5.248;2023-09-08T07:42:54;101672.94;;;35.16;31.85
78892;BME280;68368;51.728;5.248;2023-09-08T07:44:58;101668.88;;;35.14;31.71
78892;BME280;68368;51.728;5.248;2023-09-08T07:47:00;101665.33;;;35.16;32.14
78892;BME280;68368;51.728;5.248;2023-09-08T07:49:01;101668.37;;;35.15;31.61
78892;BME280;68368;51.728;5.248;2023-09-08T07:51:03;101674.42;;;35.05;32.17
78892;BME280;68368;51.728;5.248;2023-09-08T07:53:08;101674.34;;;35.02;32.50
78892;BME280;68368;51.728;5.248;2023-09-08T07:55:10;101673.99;;;35.01;32.09
78892;BME280;68368;51.728;5.248;2023-09-08T07:57:13;101667.23;;;34.91;32.25
78892;BME280;68368;51.728;5.248;2023-09-08T07:59:15;101667.88;;;34.85;32.43
78892;BME280;68368;51.728;5.248;2023-09-08T08:01:17;101668.48;;;34.79;32.74
78892;BME280;68368;51.728;5.248;2023-09-08T08:03:19;101663.48;;;34.81;33.17
78892;BME280;68368;51.728;5.248;2023-09-08T08:05:24;101662.83;;;34.84;32.73
78892;BME280;68368;51.728;5.248;2023-09-08T08:07:26;101665.27;;;34.87;33.30
78892;BME280;68368;51.728;5.248;2023-09-08T08:09:28;101660.98;;;34.91;32.83
78892;BME280;68368;51.728;5.248;2023-09-08T08:11:30;101655.92;;;34.98;33.14
78892;BME280;68368;51.728;5.248;2023-09-08T08:13:32;101654.55;;;35.02;32.69
78892;BME280;68368;51.728;5.248;2023-09-08T08:15:38;101656.58;;;34.98;32.83
78892;BME280;68368;51.728;5.248;2023-09-08T08:17:40;101652.60;;;34.96;33.10
78892;BME280;68368;51.728;5.248;2023-09-08T08:19:43;101655.27;;;34.97;33.25
78892;BME280;68368;51.728;5.248;2023-09-08T08:21:45;101653.18;;;35.05;33.40
78892;BME280;68368;51.728;5.248;2023-09-08T08:23:47;101656.52;;;35.16;33.25
78892;BME280;68368;51.728;5.248;2023-09-08T08:25:50;101658.48;;;35.30;33.43
78892;BME280;68368;51.728;5.248;2023-09-08T08:27:51;101660.05;;;35.46;33.20
78892;BME280;68368;51.728;5.248;2023-09-08T08:29:55;101660.39;;;35.59;33.31
78892;BME280;68368;51.728;5.248;2023-09-08T08:31:57;101664.30;;;35.71;33.12
78892;BME280;68368;51.728;5.248;2023-09-08T08:34:02;101665.52;;;35.80;32.88
78892;BME280;68368;51.728;5.248;2023-09-08T08:36:05;101668.61;;;35.85;32.06
78892;BME280;68368;51.728;5.248;2023-09-08T08:38:07;101667.94;;;35.79;32.24
78892;BME280;68368;51.728;5.248;2023-09-08T08:40:12;101665.84;;;35.76;32.59
78892;BME280;68368;51.728;5.248;2023-09-08T08:42:16;101665.41;;;35.73;32.63
78892;BME280;68368;51.728;5.248;2023-09-08T08:44:18;101663.98;;;35.74;32.44
78892;BME280;68368;51.728;5.248;2023-09-08T08:46:22;101666.11;;;35.78;32.43
78892;BME280;68368;51.728;5.248;2023-09-08T08:48:26;101659.85;;;35.75;32.58
78892;BME280;68368;51.728;5.248;2023-09-08T08:50:30;101655.86;;;35.76;32.81
78892;BME280;68368;51.728;5.248;2023-09-08T08:52:33;101658.52;;;35.70;32.68
78892;BME280;68368;51.728;5.248;2023-09-08T08:54:38;101657.30;;;35.69;32.93
78892;BME280;68368;51.728;5.248;2023-09-08T08:56:40;101657.45;;;35.71;33.02
78892;BME280;68368;51.728;5.248;2023-09-08T08:58:43;101658.72;;;35.70;32.92
78892;BME280;68368;51.728;5.248;2023-09-08T09:00:46;101654.36;;;35.71;33.32
78892;BME280;68368;51.728;5.248;2023-09-08T09:02:49;101655.52;;;35.77;33.30
78892;BME280;68368;51.728;5.248;2023-09-08T09:04:53;101658.83;;;35.86;33.35
78892;BME280;68368;51.728;5.248;2023-09-08T09:06:56;101659.67;;;35.91;33.30
78892;BME280;68368;51.728;5.248;2023-09-08T09:09:00;101658.32;;;35.93;33.10
78892;BME280;68368;51.728;5.248;2023-09-08T09:11:03;101661.34;;;35.94;32.92
78892;BME280;68368;51.728;5.248;2023-09-08T09:13:06;101657.30;;;36.01;33.21
78892;BME280;68368;51.728;5.248;2023-09-08T09:15:10;101655.45;;;36.06;32.89
78892;BME280;68368;51.728;5.248;2023-09-08T09:17:12;101658.05;;;36.10;33.17
78892;BME280;68368;51.728;5.248;2023-09-08T09:19:21;101653.66;;;36.15;33.08
78892;BME280;68368;51.728;5.248;2023-09-08T09:21:25;101652.59;;;36.30;32.92
78892;BME280;68368;51.728;5.248;2023-09-08T09:23:42;101650.80;;;36.43;33.00
78892;BME280;68368;51.728;5.248;2023-09-08T09:25:44;101651.44;;;36.51;32.53
78892;BME280;68368;51.728;5.248;2023-09-08T09:27:52;101653.95;;;36.64;32.67
78892;BME280;68368;51.728;5.248;2023-09-08T09:29:53;101660.39;;;36.81;32.38
78892;BME280;68368;51.728;5.248;2023-09-08T09:32:05;101663.14;;;36.91;31.92
78892;BME280;68368;51.728;5.248;2023-09-08T09:34:09;101654.10;;;37.01;31.87
78892;BME280;68368;51.728;5.248;2023-09-08T09:36:20;101654.09;;;37.17;31.92
78892;BME280;68368;51.728;5.248;2023-09-08T09:38:25;101651.65;;;37.32;31.69
78892;BME280;68368;51.728;5.248;2023-09-08T09:40:29;101651.90;;;37.48;31.44
78892;BME280;68368;51.728;5.248;2023-09-08T09:42:32;101650.24;;;37.59;31.01
78892;BME280;68368;51.728;5.248;2023-09-08T09:44:35;101649.96;;;37.72;31.07
78892;BME280;68368;51.728;5.248;2023-09-08T09:46:37;101651.87;;;37.84;30.91
78892;BME280;68368;51.728;5.248;2023-09-08T09:48:39;101651.39;;;37.95;30.56
78892;BME280;68368;51.728;5.248;2023-09-08T09:50:42;101653.86;;;38.04;30.21
78892;BME280;68368;51.728;5.248;2023-09-08T09:52:44;101647.46;;;38.09;30.20
78892;BME280;68368;51.728;5.248;2023-09-08T09:54:46;101654.17;;;38.21;30.18
78892;BME280;68368;51.728;5.248;2023-09-08T09:56:50;101653.70;;;38.30;30.15
78892;BME280;68368;51.728;5.248;2023-09-08T09:58:54;101649.48;;;38.36;29.89
78892;BME280;68368;51.728;5.248;2023-09-08T10:00:57;101652.78;;;38.46;29.97
78892;BME280;68368;51.728;5.248;2023-09-08T10:03:00;101649.63;;;38.59;29.80
78892;BME280;68368;51.728;5.248;2023-09-08T10:05:12;101648.27;;;38.70;29.52
78892;BME280;68368;51.728;5.248;2023-09-08T10:07:23;101646.56;;;38.77;29.46
78892;BME280;68368;51.728;5.248;2023-09-08T10:09:26;101650.36;;;38.82;29.28
78892;BME280;68368;51.728;5.248;2023-09-08T10:11:32;101648.16;;;38.90;29.23
78892;BME280;68368;51.728;5.248;2023-09-08T10:13:42;101655.77;;;39.00;29.36
78892;BME280;68368;51.728;5.248;2023-09-08T10:15:45;101655.70;;;39.05;29.26
78892;BME280;68368;51.728;5.248;2023-09-08T10:17:53;101653.84;;;39.08;29.10
78892;BME280;68368;51.728;5.248;2023-09-08T10:19:57;101651.77;;;39.10;29.12
78892;BME280;68368;51.728;5.248;2023-09-08T10:22:04;101651.64;;;39.16;29.04
78892;BME280;68368;51.728;5.248;2023-09-08T10:24:12;101649.31;;;39.13;29.20
78892;BME280;68368;51.728;5.248;2023-09-08T10:26:17;101647.94;;;39.11;29.41
78892;BME280;68368;51.728;5.248;2023-09-08T10:28:19;101646.89;;;39.07;29.23
78892;BME280;68368;51.728;5.248;2023-09-08T10:30:22;101647.70;;;38.98;29.12
78892;BME280;68368;51.728;5.248;2023-09-08T10:32:24;101649.73;;;38.90;29.05
78892;BME280;68368;51.728;5.248;2023-09-08T10:34:29;101646.48;;;38.73;29.58
78892;BME280;68368;51.728;5.248;2023-09-08T10:36:35;101648.52;;;38.59;29.80
78892;BME280;68368;51.728;5.248;2023-09-08T10:38:37;101642.04;;;38.39;29.49
78892;BME280;68368;51.728;5.248;2023-09-08T10:40:41;101641.70;;;38.18;29.90
78892;BME280;68368;51.728;5.248;2023-09-08T10:42:44;101643.11;;;38.06;30.37
78892;BME280;68368;51.728;5.248;2023-09-08T10:45:16;101637.63;;;37.97;30.31
78892;BME280;68368;51.728;5.248;2023-09-08T10:47:20;101632.25;;;37.73;30.82